Time;durP1;ratioP1;P1;durP2;ratioP2;P2;SDS_P1;SDS_P2;PMS_P1;PMS_P2;Temp;Humidity;BMP_temperature;BMP_pressure;BME280_temperature;BME280_humidity;BME280_pressure;Samples;Min_cycle;Max_cycle;Signal;HPM_P1;HPM_P2
2022/09/27 00:00:23;;;;;;;;;2.00;2.00;;;;;12.79;66.59;100071.00;5080662;28;45392;-80
2022/09/27 00:02:48;;;;;;;;;2.00;2.00;;;;;12.75;66.27;100066.72;5068972;27;45232;-80
2022/09/27 00:05:14;;;;;;;;;5.25;1.50;;;;;12.73;66.41;100070.28;5071945;28;46332;-79
2022/09/27 00:07:40;;;;;;;;;1.50;1.50;;;;;12.71;66.22;100066.81;5076613;27;46394;-80
2022/09/27 00:10:07;;;;;;;;;2.00;2.00;;;;;12.69;66.49;100068.63;5073014;28;45313;-79
2022/09/27 00:12:32;;;;;;;;;2.75;2.00;;;;;12.67;66.26;100068.66;5068878;27;45307;-79
2022/09/27 00:14:59;;;;;;;;;3.00;2.25;;;;;12.66;66.51;100066.91;5070122;28;45579;-79
2022/09/27 00:17:25;;;;;;;;;2.75;2.75;;;;;12.63;66.43;100064.34;5073705;28;47467;-78
2022/09/27 00:19:50;;;;;;;;;2.50;2.50;;;;;12.65;66.47;100065.19;5072429;28;45539;-79
2022/09/27 00:22:18;;;;;;;;;3.00;3.00;;;;;12.67;66.77;100073.06;5079283;28;45946;-79
2022/09/27 00:24:44;;;;;;;;;1.25;1.25;;;;;12.67;67.23;100070.41;5068857;28;45573;-80
2022/09/27 00:27:09;;;;;;;;;4.00;3.00;;;;;12.66;66.98;100082.75;5075520;28;45331;-79
2022/09/27 00:29:37;;;;;;;;;3.00;1.25;;;;;12.70;66.65;100079.16;5074932;28;45283;-80
2022/09/27 00:32:02;;;;;;;;;2.25;2.25;;;;;12.68;66.95;100086.25;5081982;28;45275;-79
2022/09/27 00:34:28;;;;;;;;;2.50;1.75;;;;;12.71;67.39;100090.59;5070564;28;45233;-79
2022/09/27 00:36:56;;;;;;;;;3.00;3.00;;;;;12.64;67.21;100088.97;5076411;28;46068;-80
2022/09/27 00:39:21;;;;;;;;;2.00;2.00;;;;;12.64;67.23;100092.47;5072647;28;45353;-79
2022/09/27 00:41:47;;;;;;;;;2.00;2.00;;;;;12.61;67.70;100094.34;5061945;28;45445;-79
2022/09/27 00:44:27;;;;;;;;;2.00;2.00;;;;;12.60;67.72;100095.25;5061912;28;45446;-79
2022/09/27 00:47:10;;;;;;;;;3.50;3.00;;;;;12.54;67.79;100101.53;5069595;28;46144;-79
2022/09/27 00:49:41;;;;;;;;;2.25;2.25;;;;;12.53;67.53;100105.94;5068803;27;45326;-80
2022/09/27 00:52:22;;;;;;;;;3.50;3.00;;;;;12.50;68.12;100108.63;5069753;28;45409;-80
2022/09/27 00:54:54;;;;;;;;;5.75;3.00;;;;;12.46;68.10;100109.63;5074769;28;45408;-80
2022/09/27 00:57:22;;;;;;;;;5.75;4.75;;;;;12.50;68.57;100107.78;5073992;28;47600;-79
2022/09/27 00:59:55;;;;;;;;;2.50;2.50;;;;;12.46;68.37;100104.34;5080101;28;45381;-79
2022/09/27 01:02:20;;;;;;;;;3.00;3.00;;;;;12.54;68.24;100126.16;5079561;27;45277;-80
2022/09/27 01:04:47;;;;;;;;;7.50;4.50;;;;;12.46;68.37;100101.69;5060400;28;45222;-79
2022/09/27 01:07:12;;;;;;;;;3.00;3.00;;;;;12.48;68.30;100107.81;5077896;28;45500;-79
2022/09/27 01:09:38;;;;;;;;;3.50;2.50;;;;;12.48;68.33;100117.50;5070839;28;45258;-79
2022/09/27 01:12:35;;;;;;;;;4.00;4.00;;;;;12.48;68.62;100112.22;5080383;28;45586;-79
2022/09/27 01:15:18;;;;;;;;;5.75;5.75;;;;;12.48;68.39;100121.03;5067844;27;45627;-79
2022/09/27 01:17:59;;;;;;;;;4.00;4.00;;;;;12.46;68.71;100124.59;5069954;28;46999;-79
2022/09/27 01:20:30;;;;;;;;;2.00;2.00;;;;;12.44;68.53;100129.91;5076315;28;45180;-79
2022/09/27 01:23:10;;;;;;;;;5.00;4.00;;;;;12.44;68.69;100118.47;5077435;27;45359;-79
2022/09/27 01:26:09;;;;;;;;;4.00;4.00;;;;;12.43;69.10;100122.00;5081514;27;45392;-81
2022/09/27 01:29:03;;;;;;;;;3.00;2.00;;;;;12.37;68.85;100125.63;5070014;28;45400;-79
2022/09/27 01:32:11;;;;;;;;;2.25;2.25;;;;;12.36;69.02;100119.50;5082785;27;45506;-79
2022/09/27 01:34:36;;;;;;;;;2.00;2.00;;;;;12.35;68.72;100123.06;5048274;28;45469;-79
2022/09/27 01:37:25;;;;;;;;;1.00;1.00;;;;;12.33;69.09;100121.34;5055350;28;45824;-78
2022/09/27 01:39:50;;;;;;;;;3.00;3.00;;;;;12.32;69.29;100122.22;5054597;28;45511;-79
2022/09/27 01:42:22;;;;;;;;;4.75;3.25;;;;;12.29;68.99;100123.16;5071579;28;45266;-79
2022/09/27 01:45:03;;;;;;;;;3.00;2.00;;;;;12.22;69.12;100112.78;5064324;28;45372;-79
2022/09/27 01:47:39;;;;;;;;;2.00;2.00;;;;;12.25;69.13;100115.34;5068564;28;45224;-79
2022/09/27 01:50:12;;;;;;;;;1.00;1.00;;;;;12.20;69.04;100118.09;5068740;28;45400;-79
2022/09/27 01:52:49;;;;;;;;;4.00;2.00;;;;;12.23;69.29;100131.22;5068474;27;45289;-79
2022/09/27 01:55:18;;;;;;;;;1.50;1.50;;;;;12.21;69.13;100127.72;5072360;27;45368;-79
2022/09/27 01:57:52;;;;;;;;;4.00;2.00;;;;;12.22;69.35;100121.56;5076941;28;45458;-80
2022/09/27 02:00:17;;;;;;;;;2.50;2.00;;;;;12.21;69.38;100126.88;5082448;27;46115;-80
2022/09/27 02:02:58;;;;;;;;;1.00;1.00;;;;;12.23;69.00;100131.22;5067081;27;45173;-80
2022/09/27 02:05:31;;;;;;;;;2.00;2.00;;;;;12.17;69.25;100122.56;5072457;27;45567;-79
2022/09/27 02:08:11;;;;;;;;;2.50;2.50;;;;;12.25;69.16;100133.84;5066823;28;46111;-80
2022/09/27 02:10:42;;;;;;;;;1.25;1.25;;;;;12.19;69.42;100120.75;5065452;28;46964;-79
2022/09/27 02:13:16;;;;;;;;;2.00;2.00;;;;;12.25;69.07;100128.56;5069580;28;45350;-79
2022/09/27 02:16:00;;;;;;;;;3.00;2.00;;;;;12.19;68.84;100124.28;5073842;28;45377;-80
2022/09/27 02:18:38;;;;;;;;;2.00;1.00;;;;;12.23;68.97;100127.72;5074148;28;45168;-79
2022/09/27 02:21:10;;;;;;;;;1.00;1.00;;;;;12.16;68.84;100113.75;5069175;28;46208;-79
2022/09/27 02:23:42;;;;;;;;;2.25;1.00;;;;;12.21;69.06;100114.53;5069094;28;45266;-79
2022/09/27 02:26:19;;;;;;;;;2.00;1.00;;;;;12.22;69.06;100115.44;5070239;28;45317;-80
2022/09/27 02:28:54;;;;;;;;;2.00;2.00;;;;;12.19;69.04;100119.00;5069879;27;45248;-79
2022/09/27 02:31:20;;;;;;;;;1.75;1.75;;;;;12.24;69.07;100121.53;5068182;28;46441;-79
2022/09/27 02:33:54;;;;;;;;;2.25;2.00;;;;;12.25;68.73;100123.28;5073384;28;45269;-79
2022/09/27 02:36:20;;;;;;;;;2.00;2.00;;;;;12.20;68.62;100110.16;5073764;28;45229;-79
2022/09/27 02:38:46;;;;;;;;;2.00;0.50;;;;;12.26;69.34;100127.63;5066981;28;45253;-80
2022/09/27 02:41:19;;;;;;;;;4.50;4.50;;;;;12.25;68.85;100123.28;5065573;27;46597;-79
2022/09/27 02:43:49;;;;;;;;;3.75;2.00;;;;;12.27;69.05;100118.81;5082382;27;45204;-79
2022/09/27 02:46:33;;;;;;;;;2.33;2.33;;;;;12.28;68.97;100124.06;5078911;27;45499;-80
2022/09/27 02:49:01;;;;;;;;;2.00;2.00;;;;;12.28;69.24;100120.56;5062406;28;45889;-79
2022/09/27 02:51:43;;;;;;;;;1.00;1.00;;;;;12.27;69.05;100124.97;5075699;28;47143;-79
2022/09/27 02:54:09;;;;;;;;;1.50;1.00;;;;;12.28;69.29;100121.44;5077567;28;45433;-79
2022/09/27 02:57:04;;;;;;;;;2.00;1.00;;;;;12.27;69.56;100116.16;5076527;27;45404;-78
2022/09/27 02:59:47;;;;;;;;;4.50;3.00;;;;;12.29;69.47;100114.38;5072316;27;45577;-79
2022/09/27 03:02:34;;;;;;;;;1.75;1.75;;;;;12.28;69.49;100123.22;5070027;28;46467;-80
2022/09/27 03:05:16;;;;;;;;;2.00;2.00;;;;;12.29;69.54;100124.94;5073379;28;45397;-79
2022/09/27 03:07:42;;;;;;;;;4.25;1.00;;;;;12.30;69.63;100117.00;5082326;28;45584;-79
2022/09/27 03:10:15;;;;;;;;;1.00;1.00;;;;;12.28;69.48;100115.28;5082107;28;45596;-80
2022/09/27 03:12:41;;;;;;;;;3.75;3.00;;;;;12.28;69.88;100110.00;5077025;27;45613;-79
2022/09/27 03:15:06;;;;;;;;;3.50;3.00;;;;;12.35;70.16;100123.06;5075164;28;45424;-79
2022/09/27 03:17:32;;;;;;;;;7.00;3.00;;;;;12.40;70.20;100127.34;5061997;28;45248;-80
2022/09/27 03:19:57;;;;;;;;;4.50;2.00;;;;;12.38;70.25;100111.56;5074985;28;45564;-79
2022/09/27 03:22:22;;;;;;;;;1.75;1.00;;;;;12.42;70.54;100122.91;5088786;27;47149;-79
2022/09/27 03:24:48;;;;;;;;;3.25;2.50;;;;;12.42;70.55;100115.84;5074836;28;45243;-79
2022/09/27 03:27:13;;;;;;;;;3.50;3.00;;;;;12.46;70.86;100120.19;5085424;27;45381;-79
2022/09/27 03:29:39;;;;;;;;;2.00;2.00;;;;;12.45;71.21;100113.16;5082855;27;45380;-79
2022/09/27 03:32:04;;;;;;;;;2.00;2.00;;;;;12.42;71.40;100107.94;5069248;27;45341;-79
2022/09/27 03:34:29;;;;;;;;;3.33;2.33;;;;;12.44;71.41;100121.97;5071587;27;45455;-79
2022/09/27 03:36:55;;;;;;;;;2.00;1.00;;;;;12.47;71.33;100115.75;5076571;28;46022;-79
2022/09/27 03:39:20;;;;;;;;;4.25;3.00;;;;;12.45;71.43;100113.16;5074517;28;45402;-80
2022/09/27 03:41:46;;;;;;;;;1.25;1.25;;;;;12.43;71.42;100117.63;5069079;27;45299;-79
2022/09/27 03:44:11;;;;;;;;;5.00;3.25;;;;;12.38;71.32;100103.66;5071239;27;45420;-79
2022/09/27 03:46:37;;;;;;;;;2.25;2.25;;;;;12.43;71.66;100117.63;5076154;28;45584;-79
2022/09/27 03:49:02;;;;;;;;;3.00;3.00;;;;;12.39;71.71;100104.50;5075271;28;45435;-78
2022/09/27 03:51:27;;;;;;;;;5.75;3.00;;;;;12.34;71.50;100108.09;5080628;27;47207;-80
2022/09/27 03:53:53;;;;;;;;;4.25;1.50;;;;;12.34;71.60;100104.59;5062549;28;45239;-80
2022/09/27 03:56:18;;;;;;;;;1.00;1.00;;;;;12.33;71.49;100110.78;5075521;28;45453;-79
2022/09/27 03:58:44;;;;;;;;;4.75;3.25;;;;;12.28;71.27;100099.44;5073450;28;45270;-79
2022/09/27 04:01:09;;;;;;;;;2.25;2.00;;;;;12.31;71.37;100109.94;5075948;28;47106;-79
2022/09/27 04:03:35;;;;;;;;;4.50;3.00;;;;;12.27;71.55;100113.53;5075140;28;45160;-79
2022/09/27 04:06:01;;;;;;;;;3.00;3.00;;;;;12.29;71.56;100114.38;5073391;27;45275;-80
2022/09/27 04:08:28;;;;;;;;;2.00;2.00;;;;;12.25;71.32;100112.72;5081605;28;45527;-79
2022/09/27 04:10:54;;;;;;;;;2.75;2.75;;;;;12.22;71.55;100099.59;5075072;28;45960;-80
2022/09/27 04:13:19;;;;;;;;;2.00;2.00;;;;;12.23;71.26;100103.97;5074448;28;45419;-79
2022/09/27 04:15:45;;;;;;;;;2.00;1.00;;;;;12.14;71.39;100090.06;5085107;27;45483;-79
2022/09/27 04:18:10;;;;;;;;;1.50;0.75;;;;;12.13;71.54;100093.59;5069980;27;45264;-80
2022/09/27 04:20:36;;;;;;;;;1.00;1.00;;;;;12.16;71.53;100097.91;5079753;28;46116;-78
2022/09/27 04:23:02;;;;;;;;;4.25;3.00;;;;;12.14;71.60;100092.69;5070522;28;45395;-80
2022/09/27 04:25:28;;;;;;;;;1.75;1.00;;;;;12.17;71.65;100091.75;5074090;28;45365;-78
2022/09/27 04:27:54;;;;;;;;;1.00;1.00;;;;;12.16;71.67;100091.78;5071660;28;45409;-79
2022/09/27 04:30:20;;;;;;;;;1.75;1.00;;;;;12.19;71.42;100097.88;5082147;27;45516;-80
2022/09/27 04:32:46;;;;;;;;;4.00;3.75;;;;;12.13;71.66;100090.97;5070931;27;45251;-80
2022/09/27 04:37:56;;;;;;;;;1.00;1.00;;;;;12.16;71.76;100090.00;5075499;28;45270;-80
2022/09/27 04:40:22;;;;;;;;;1.00;1.00;;;;;12.17;71.60;100089.13;5068680;28;45927;-80
2022/09/27 04:42:48;;;;;;;;;4.50;4.25;;;;;12.15;71.73;100085.63;5077950;27;45441;-79
2022/09/27 04:45:14;;;;;;;;;3.00;3.00;;;;;12.18;71.80;100082.94;5074466;27;45314;-80
2022/09/27 04:47:45;;;;;;;;;2.00;2.00;;;;;12.15;71.63;100072.44;5074950;28;45457;-79
2022/09/27 04:50:12;;;;;;;;;3.00;1.00;;;;;12.21;71.70;100090.78;5069960;28;46518;-79
2022/09/27 04:52:37;;;;;;;;;3.00;2.00;;;;;12.24;71.85;100084.56;5082135;27;45377;-79
2022/09/27 04:55:04;;;;;;;;;2.75;1.75;;;;;12.29;71.73;100094.13;5061215;28;45256;-79
2022/09/27 04:57:29;;;;;;;;;2.75;1.00;;;;;12.31;71.44;100092.31;5075737;28;45360;-79
2022/09/27 04:59:55;;;;;;;;;5.00;3.00;;;;;12.31;71.52;100102.88;5077768;28;45408;-80
2022/09/27 05:02:20;;;;;;;;;3.50;2.00;;;;;12.33;72.10;100106.38;5082580;27;45454;-79
2022/09/27 05:04:45;;;;;;;;;2.00;2.00;;;;;12.39;71.73;100117.69;5070788;28;45348;-80
2022/09/27 05:07:11;;;;;;;;;2.00;0.00;;;;;12.36;71.92;100111.59;5081031;28;45409;-80
2022/09/27 05:09:36;;;;;;;;;3.25;2.50;;;;;12.38;72.01;100095.72;5079746;28;46995;-80
2022/09/27 05:12:03;;;;;;;;;1.50;1.50;;;;;12.41;71.81;100103.56;5079601;27;45461;-80
2022/09/27 05:14:28;;;;;;;;;2.00;1.75;;;;;12.41;71.87;100097.44;5069780;28;45609;-80
2022/09/27 05:16:54;;;;;;;;;8.50;3.75;;;;;12.34;72.23;100094.91;5067736;27;45538;-80
2022/09/27 05:19:19;;;;;;;;;2.50;2.50;;;;;12.36;72.09;100103.66;5070752;28;47193;-80
2022/09/27 05:21:45;;;;;;;;;2.67;2.00;;;;;12.29;72.23;100096.75;5076439;28;45350;-80
2022/09/27 05:24:10;;;;;;;;;1.00;1.00;;;;;12.30;72.21;100087.09;5064921;28;45250;-80
2022/09/27 05:26:36;;;;;;;;;3.00;2.00;;;;;12.22;72.03;100091.69;5074409;28;45237;-80
2022/09/27 05:29:02;;;;;;;;;3.00;3.00;;;;;12.20;72.46;100094.34;5068867;28;47686;-80
2022/09/27 05:31:28;;;;;;;;;3.50;3.50;;;;;12.13;72.60;100098.00;5065823;28;45336;-80
2022/09/27 05:33:54;;;;;;;;;3.00;2.00;;;;;12.07;72.29;100100.75;5074112;27;45243;-80
2022/09/27 05:36:20;;;;;;;;;2.50;2.50;;;;;12.06;72.73;100110.44;5074129;28;45512;-80
2022/09/27 05:38:46;;;;;;;;;4.75;3.50;;;;;12.10;72.93;100109.47;5067409;28;45354;-80
2022/09/27 05:41:12;;;;;;;;;2.75;2.75;;;;;12.08;73.21;100105.13;5067080;28;45362;-80
2022/09/27 05:43:40;;;;;;;;;3.00;2.00;;;;;12.07;73.03;100088.44;5072093;28;45489;-80
2022/09/27 05:46:05;;;;;;;;;1.67;1.67;;;;;12.20;73.24;100109.31;5072694;28;45548;-78
2022/09/27 05:48:31;;;;;;;;;2.25;1.25;;;;;12.18;73.04;100098.75;5067716;28;46180;-78
2022/09/27 05:51:04;;;;;;;;;0.00;0.00;;;;;12.21;73.01;100093.41;5081909;27;45860;-80
2022/09/27 05:53:30;;;;;;;;;0.50;0.25;;;;;12.26;73.05;100088.06;5067413;28;45213;-78
2022/09/27 05:55:59;;;;;;;;;3.00;2.00;;;;;12.23;73.01;100075.78;5066969;27;45305;-80
2022/09/27 05:58:25;;;;;;;;;2.25;2.00;;;;;12.30;73.13;100082.69;5074149;28;45459;-80
2022/09/27 06:00:50;;;;;;;;;1.33;1.33;;;;;12.23;73.04;100062.59;5078655;28;45688;-80
2022/09/27 06:03:19;;;;;;;;;3.50;2.00;;;;;12.28;73.02;100081.84;5070895;27;45735;-82
2022/09/27 06:05:44;;;;;;;;;3.00;2.00;;;;;12.29;72.96;100075.66;5075521;28;45523;-80
2022/09/27 06:08:11;;;;;;;;;2.25;1.25;;;;;12.34;72.94;100086.97;5070483;27;46744;-78
2022/09/27 06:10:38;;;;;;;;;4.00;3.25;;;;;12.38;72.65;100092.22;5072856;28;45175;-79
2022/09/27 06:13:12;;;;;;;;;2.00;1.00;;;;;12.41;72.80;100100.94;5070771;28;45821;-80
2022/09/27 06:15:39;;;;;;;;;1.00;1.00;;;;;12.38;72.80;100084.31;5065621;27;45296;-80
2022/09/27 06:18:08;;;;;;;;;2.75;2.75;;;;;12.40;72.53;100099.16;5059445;28;45527;-80
2022/09/27 06:20:34;;;;;;;;;1.75;1.25;;;;;12.44;72.30;100100.00;5078859;28;45460;-80
2022/09/27 06:23:08;;;;;;;;;1.75;1.75;;;;;12.42;72.24;100100.03;5075585;27;45291;-80
2022/09/27 06:25:37;;;;;;;;;4.25;3.00;;;;;12.41;72.38;100098.28;5079944;27;45535;-80
2022/09/27 06:28:03;;;;;;;;;2.75;2.75;;;;;12.46;72.44;100101.69;5079816;27;45517;-80
2022/09/27 06:30:29;;;;;;;;;1.75;1.00;;;;;12.50;72.48;100100.72;5072902;28;45270;-80
2022/09/27 06:32:59;;;;;;;;;5.00;3.25;;;;;12.46;72.36;100099.06;5071931;28;45429;-79
2022/09/27 06:35:25;;;;;;;;;2.00;2.00;;;;;12.45;72.32;100086.75;5066213;27;45422;-80
2022/09/27 06:37:51;;;;;;;;;2.75;2.25;;;;;12.55;72.61;100096.19;5066815;27;46247;-80
2022/09/27 06:40:17;;;;;;;;;2.00;2.00;;;;;12.59;72.75;100104.94;5072827;28;45238;-80
2022/09/27 06:42:43;;;;;;;;;2.00;2.00;;;;;12.62;72.54;100096.94;5072690;28;45492;-80
2022/09/27 06:45:09;;;;;;;;;3.25;2.00;;;;;12.60;72.48;100084.69;5064981;28;45567;-80
2022/09/27 06:47:37;;;;;;;;;4.75;3.00;;;;;12.67;72.34;100089.78;5066729;27;46392;-81
2022/09/27 06:50:04;;;;;;;;;3.00;2.00;;;;;12.67;72.42;100087.16;5066458;28;45429;-82
2022/09/27 06:52:30;;;;;;;;;3.00;3.00;;;;;12.68;72.06;100085.38;5066144;27;45175;-81
2022/09/27 06:54:56;;;;;;;;;2.00;2.00;;;;;12.74;72.10;100094.00;5072451;28;45225;-81
2022/09/27 07:00:25;;;;;;;;;3.25;3.00;;;;;12.81;71.96;100100.03;5076840;28;45383;-81
2022/09/27 07:02:52;;;;;;;;;3.25;2.00;;;;;12.82;71.51;100104.41;5064464;28;45497;-83
2022/09/27 07:05:19;;;;;;;;;2.50;1.00;;;;;12.87;71.55;100109.59;5071757;27;45461;-83
2022/09/27 07:07:47;;;;;;;;;3.00;3.00;;;;;12.84;71.60;100107.03;5073138;27;45454;-83
2022/09/27 07:10:12;;;;;;;;;2.50;1.25;;;;;12.84;71.62;100097.31;5072773;28;45362;-85
2022/09/27 07:12:38;;;;;;;;;2.25;1.25;;;;;12.91;71.49;100112.13;5066109;27;45394;-83
2022/09/27 07:15:05;;;;;;;;;2.00;2.00;;;;;13.01;71.75;100123.34;5074873;28;45543;-82
2022/09/27 07:17:34;;;;;;;;;1.00;1.00;;;;;13.05;71.41;100124.16;5064526;28;47407;-83
2022/09/27 07:20:01;;;;;;;;;2.50;2.00;;;;;13.07;71.25;100120.56;5065635;27;45390;-83
2022/09/27 07:22:28;;;;;;;;;2.50;1.00;;;;;13.14;71.26;100131.84;5085780;27;45456;-85
2022/09/27 07:24:54;;;;;;;;;1.50;1.50;;;;;13.14;70.93;100140.63;5070745;28;45530;-85
2022/09/27 07:27:19;;;;;;;;;3.25;3.25;;;;;13.22;70.59;100138.66;5064319;28;47775;-84
2022/09/27 07:29:44;;;;;;;;;1.00;0.00;;;;;13.30;70.38;100142.94;5080711;27;45237;-84
2022/09/27 07:32:10;;;;;;;;;2.00;2.00;;;;;13.31;70.66;100139.38;5082928;27;45632;-85
2022/09/27 07:34:35;;;;;;;;;5.25;3.50;;;;;13.32;70.42;100142.00;5082969;28;45450;-86
2022/09/27 07:37:04;;;;;;;;;3.75;2.00;;;;;13.38;70.45;100138.34;5075187;28;46959;-85
2022/09/27 07:39:31;;;;;;;;;4.00;3.75;;;;;13.45;70.67;100151.38;5074630;28;45341;-86
2022/09/27 07:41:59;;;;;;;;;2.67;1.67;;;;;13.50;70.46;100155.66;5076452;28;45350;-88
2022/09/27 07:44:25;;;;;;;;;2.00;1.67;;;;;13.52;70.18;100140.63;5072017;27;45555;-84
2022/09/27 07:46:51;;;;;;;;;4.00;4.00;;;;;13.64;70.52;100156.19;5082553;28;45327;-86
2022/09/27 07:49:16;;;;;;;;;2.50;2.50;;;;;13.65;70.28;100155.28;5097054;27;45339;-86
2022/09/27 07:51:41;;;;;;;;;4.25;3.00;;;;;13.71;69.82;100159.53;5068871;28;45461;-85
2022/09/27 07:54:07;;;;;;;;;2.75;2.00;;;;;13.75;69.65;100164.72;5066366;28;45290;-84
2022/09/27 07:56:32;;;;;;;;;4.25;4.25;;;;;13.79;69.53;100158.44;5077100;28;48300;-84
2022/09/27 07:58:58;;;;;;;;;5.00;3.67;;;;;13.92;69.52;100171.34;5079347;28;45482;-85
2022/09/27 08:01:23;;;;;;;;;4.00;4.00;;;;;13.94;69.06;100167.72;5089851;27;45362;-83
2022/09/27 08:03:49;;;;;;;;;3.67;2.00;;;;;13.96;68.98;100173.88;5075507;28;45854;-84
2022/09/27 08:06:15;;;;;;;;;2.33;2.33;;;;;13.99;68.72;100176.44;5081955;28;45439;-84
2022/09/27 08:08:41;;;;;;;;;1.00;1.00;;;;;13.97;68.82;100180.03;5067685;28;45361;-85
2022/09/27 08:11:14;;;;;;;;;2.00;2.00;;;;;13.97;68.75;100180.03;5078595;27;45500;-83
2022/09/27 08:13:41;;;;;;;;;2.00;2.00;;;;;13.95;68.23;100182.69;5075525;28;45437;-88
2022/09/27 08:16:06;;;;;;;;;2.67;2.00;;;;;13.93;68.16;100186.31;5066109;28;48212;-87
2022/09/27 08:18:32;;;;;;;;;3.00;2.00;;;;;13.96;68.37;100188.88;5079516;28;45476;-87
2022/09/27 08:20:58;;;;;;;;;3.75;3.25;;;;;14.01;68.30;100186.97;5090129;27;45390;-88
2022/09/27 08:23:24;;;;;;;;;3.75;3.75;;;;;14.05;68.16;100176.25;5078463;28;45481;-88
2022/09/27 08:25:58;;;;;;;;;2.00;2.00;;;;;14.18;68.71;100184.72;5072664;27;48478;-87
2022/09/27 08:28:27;;;;;;;;;2.50;2.50;;;;;14.26;68.13;100187.16;5080764;28;45479;-88
2022/09/27 08:30:53;;;;;;;;;2.00;2.00;;;;;14.33;67.84;100197.56;5072202;28;45311;-84
2022/09/27 08:33:18;;;;;;;;;2.50;2.25;;;;;14.38;67.33;100193.88;5075766;28;45617;-91
2022/09/27 08:35:44;;;;;;;;;2.75;2.00;;;;;14.45;67.67;100198.97;5085591;28;47475;-92
2022/09/27 08:38:10;;;;;;;;;3.00;1.50;;;;;14.55;67.45;100195.19;5095383;28;45482;-90
2022/09/27 08:40:53;;;;;;;;;1.00;1.00;;;;;14.59;67.36;100190.66;5093742;27;45303;-90
2022/09/27 08:44:00;;;;;;;;;1.33;1.33;;;;;14.67;66.77;100206.34;5092575;28;44724;-88
2022/09/27 08:46:50;;;;;;;;;2.00;0.33;;;;;14.67;66.68;100206.34;5094604;28;47512;-84
2022/09/27 08:49:22;;;;;;;;;2.00;2.00;;;;;14.58;66.88;100211.91;5106578;27;45390;-86
2022/09/27 08:51:51;;;;;;;;;2.67;1.67;;;;;14.55;66.65;100199.63;5080122;28;45475;-89
2022/09/27 08:54:30;;;;;;;;;3.00;2.00;;;;;14.50;66.67;100197.06;5093967;28;45055;-87
2022/09/27 08:57:13;;;;;;;;;1.67;1.33;;;;;14.47;66.82;100181.25;5097766;28;47125;-84
2022/09/27 09:00:07;;;;;;;;;2.67;2.00;;;;;14.49;66.73;100183.88;5092901;27;44752;-87
2022/09/27 09:02:34;;;;;;;;;3.67;2.00;;;;;14.54;66.78;100193.47;5077734;27;45650;-89
2022/09/27 09:05:07;;;;;;;;;2.33;2.33;;;;;14.52;66.95;100199.69;5075168;28;45720;-90
2022/09/27 09:08:12;;;;;;;;;1.00;1.00;;;;;14.51;66.56;100206.75;5093779;27;47437;-88
2022/09/27 09:14:04;;;;;;;;;4.00;3.00;;;;;14.47;66.73;100215.69;5072057;28;45385;-87
2022/09/27 09:16:57;;;;;;;;;3.00;2.50;;;;;14.51;67.00;100219.13;5075391;28;45509;-85
2022/09/27 09:19:40;;;;;;;;;4.00;3.25;;;;;14.53;66.40;100212.91;5084122;28;47413;-86
2022/09/27 09:22:29;;;;;;;;;2.00;2.00;;;;;14.62;66.72;100203.84;5088097;27;45208;-89
2022/09/27 09:25:09;;;;;;;;;2.00;2.00;;;;;14.71;65.89;100192.09;5063230;28;45633;-88
2022/09/27 09:28:02;;;;;;;;;2.00;2.00;;;;;14.77;65.41;100192.75;5071437;28;45317;-87
2022/09/27 09:30:41;;;;;;;;;3.00;3.00;;;;;14.84;65.68;100182.88;5076606;28;47322;-88
2022/09/27 09:33:34;;;;;;;;;3.00;2.00;;;;;14.93;66.10;100171.09;5078835;28;45253;-86
2022/09/27 09:36:33;;;;;;;;;2.33;2.33;;;;;15.01;65.59;100171.72;5081541;28;45398;-88
2022/09/27 09:39:11;;;;;;;;;2.00;2.00;;;;;15.07;65.17;100158.28;5072253;28;46252;-86
2022/09/27 09:41:43;;;;;;;;;1.67;0.33;;;;;15.12;64.92;100168.75;5078071;27;47964;-88
2022/09/27 09:44:23;;;;;;;;;2.00;1.00;;;;;15.15;64.43;100158.91;5078684;28;45378;-86
2022/09/27 09:46:54;;;;;;;;;2.00;2.00;;;;;15.44;64.65;100154.44;5100664;27;45384;-86
2022/09/27 09:49:37;;;;;;;;;0.67;0.67;;;;;15.71;63.62;100163.28;5078448;28;45492;-85
2022/09/27 09:52:18;;;;;;;;;0.33;0.00;;;;;15.81;62.68;100147.91;5059077;28;47365;-85
2022/09/27 09:55:05;;;;;;;;;1.00;1.00;;;;;15.97;62.61;100153.56;5070143;28;45404;-86
2022/09/27 09:57:39;;;;;;;;;2.00;1.00;;;;;16.09;61.35;100153.09;5065428;28;45919;-84
2022/09/27 10:00:18;;;;;;;;;1.00;1.00;;;;;16.16;60.66;100146.66;5069112;28;45208;-85
2022/09/27 10:02:45;;;;;;;;;3.67;2.00;;;;;16.23;60.32;100139.34;5060439;28;45539;-84
2022/09/27 10:05:18;;;;;;;;;2.33;1.33;;;;;16.31;58.66;100137.28;5077711;28;45421;-84
2022/09/27 10:07:44;;;;;;;;;2.00;2.00;;;;;16.40;58.82;100133.41;5073150;28;45411;-86
2022/09/27 10:10:15;;;;;;;;;1.00;1.00;;;;;16.45;58.55;100142.06;5072851;28;45455;-83
2022/09/27 10:12:41;;;;;;;;;0.00;0.00;;;;;16.49;58.10;100138.34;5078665;28;45445;-87
2022/09/27 10:15:15;;;;;;;;;1.00;0.00;;;;;16.53;57.83;100124.03;5094366;27;45968;-89
2022/09/27 10:17:48;;;;;;;;;2.00;1.00;;;;;16.56;56.85;100125.72;5069938;28;45343;-85
2022/09/27 10:20:42;;;;;;;;;1.00;1.00;;;;;16.66;56.01;100122.63;5072898;28;45369;-85
2022/09/27 10:23:18;;;;;;;;;2.00;2.00;;;;;16.71;55.71;100127.78;5068719;28;47008;-83
2022/09/27 10:26:02;;;;;;;;;0.67;0.67;;;;;16.76;56.06;100132.00;5057060;27;45601;-84
2022/09/27 10:28:42;;;;;;;;;0.00;0.00;;;;;16.71;55.58;100123.31;5072675;28;45530;-81
2022/09/27 10:31:20;;;;;;;;;2.00;0.67;;;;;16.64;55.33;100134.25;5076473;28;46674;-81
2022/09/27 10:34:00;;;;;;;;;1.00;1.00;;;;;16.53;54.75;100135.53;5070548;28;46733;-83
2022/09/27 10:36:32;;;;;;;;;0.67;0.67;;;;;16.44;55.29;100145.63;5081742;27;45451;-85
2022/09/27 10:39:00;;;;;;;;;2.33;2.33;;;;;16.36;55.32;100139.72;5079600;28;45504;-84
2022/09/27 10:41:30;;;;;;;;;1.00;1.00;;;;;16.24;55.36;100141.06;5070882;28;45665;-85
2022/09/27 10:43:59;;;;;;;;;1.00;1.00;;;;;16.11;55.95;100143.28;5076459;28;47711;-84
2022/09/27 10:46:32;;;;;;;;;1.00;1.00;;;;;16.02;56.43;100144.50;5076359;27;45721;-84
2022/09/27 10:49:16;;;;;;;;;3.00;2.67;;;;;15.96;57.27;100144.72;5077085;27;45581;-86
2022/09/27 10:51:42;;;;;;;;;1.00;1.00;;;;;15.85;58.03;100150.41;5068921;28;45529;-84
2022/09/27 10:54:36;;;;;;;;;1.33;0.33;;;;;15.74;59.30;100139.28;5066096;28;46705;-84
2022/09/27 10:57:15;;;;;;;;;2.00;1.00;;;;;15.57;59.73;100131.88;5078798;28;45793;-86
2022/09/27 10:59:53;;;;;;;;;1.33;1.00;;;;;15.47;60.53;100143.72;5080201;28;45479;-86
2022/09/27 11:02:30;;;;;;;;;1.00;1.00;;;;;15.39;61.02;100129.84;5078074;28;45547;-85
2022/09/27 11:05:30;;;;;;;;;2.00;1.67;;;;;15.36;62.04;100124.66;5078412;28;47087;-84
2022/09/27 11:07:58;;;;;;;;;3.00;1.67;;;;;15.36;61.90;100116.69;5060448;28;45788;-84
2022/09/27 11:10:30;;;;;;;;;1.00;1.00;;;;;15.36;61.81;100132.59;5077281;28;45304;-83
2022/09/27 11:13:18;;;;;;;;;2.33;2.00;;;;;15.35;62.41;100134.41;5078067;28;45446;-83
2022/09/27 11:16:12;;;;;;;;;2.00;1.00;;;;;15.32;62.53;100129.19;5078634;28;47131;-84
2022/09/27 11:19:00;;;;;;;;;2.00;2.00;;;;;15.36;63.01;100130.81;5075379;28;45452;-83
2022/09/27 11:22:03;;;;;;;;;2.00;2.00;;;;;15.37;62.95;100134.34;5079364;28;45409;-84
2022/09/27 11:24:34;;;;;;;;;1.00;1.00;;;;;15.29;62.64;100126.66;5069133;28;45464;-85
2022/09/27 11:27:09;;;;;;;;;2.33;2.33;;;;;15.20;62.30;100134.91;5077930;27;46940;-83
2022/09/27 11:30:01;;;;;;;;;3.00;3.00;;;;;15.13;62.95;100136.00;5080646;28;45374;-82
2022/09/27 11:32:45;;;;;;;;;0.33;0.33;;;;;15.09;62.86;100126.44;5077725;28;45410;-87
2022/09/27 11:35:14;;;;;;;;;1.00;1.00;;;;;15.12;62.87;100116.56;5078558;28;45492;-84
2022/09/27 11:38:05;;;;;;;;;3.00;2.00;;;;;15.22;62.99;100131.28;5079372;28;47547;-87
2022/09/27 11:40:53;;;;;;;;;3.00;3.00;;;;;15.46;62.88;100125.22;5071386;28;45434;-86
2022/09/27 11:43:43;;;;;;;;;2.00;2.00;;;;;15.79;62.31;100113.44;5078821;27;45452;-83
2022/09/27 11:46:34;;;;;;;;;3.67;2.00;;;;;15.96;61.85;100122.59;5077071;28;45496;-84
2022/09/27 11:49:06;;;;;;;;;3.00;2.00;;;;;16.03;61.39;100106.41;5071683;27;46169;-83
2022/09/27 11:51:49;;;;;;;;;1.00;1.00;;;;;16.18;61.03;100106.78;5080434;27;45479;-83
2022/09/27 11:54:39;;;;;;;;;4.67;4.00;;;;;16.42;60.65;100107.66;5066027;28;45504;-87